Time;durP1;ratioP1;P1;durP2;ratioP2;P2;SDS_P1;SDS_P2;PMS_P1;PMS_P2;Temp;Humidity;BMP_temperature;BMP_pressure;BME280_temperature;BME280_humidity;BME280_pressure;Samples;Min_cycle;Max_cycle;Signal;HPM_P1;HPM_P2
2024/01/30 00:01:14;;;;;;;;;24.00;24.00;;;;;;;;5073473;28;9710;-79
2024/01/30 00:03:42;;;;;;;;;24.75;21.50;;;;;;;;5074099;28;10002;-79
2024/01/30 00:06:10;;;;;;;;;19.75;19.75;;;;;;;;5074703;28;9856;-79
2024/01/30 00:08:37;;;;;;;;;21.75;21.75;;;;;;;;5074909;28;9815;-79
2024/01/30 00:11:05;;;;;;;;;24.50;24.50;;;;;;;;5074249;28;9867;-78
2024/01/30 00:13:32;;;;;;;;;24.75;22.50;;;;;;;;5061411;28;9679;-78
2024/01/30 00:15:59;;;;;;;;;29.00;25.75;;;;;;;;5070135;28;9896;-78
2024/01/30 00:18:27;;;;;;;;;21.00;20.00;;;;;;;;5072940;28;10181;-79
2024/01/30 00:20:55;;;;;;;;;26.25;26.25;;;;;;;;5073985;28;9993;-78
2024/01/30 00:23:22;;;;;;;;;25.75;23.75;;;;;;;;5073888;28;10135;-80
2024/01/30 00:25:50;;;;;;;;;22.75;21.00;;;;;;;;5069603;28;9771;-79
2024/01/30 00:28:17;;;;;;;;;22.75;19.00;;;;;;;;5069642;28;9962;-79
2024/01/30 00:30:44;;;;;;;;;22.00;21.75;;;;;;;;5069057;28;9916;-79
2024/01/30 00:33:12;;;;;;;;;22.75;20.25;;;;;;;;5070086;28;10861;-78
2024/01/30 00:35:41;;;;;;;;;23.00;23.00;;;;;;;;5065858;28;9917;-79
2024/01/30 00:38:10;;;;;;;;;28.25;26.75;;;;;;;;5060664;28;10061;-79
2024/01/30 00:40:37;;;;;;;;;25.25;23.50;;;;;;;;5071987;28;10107;-79
2024/01/30 00:43:05;;;;;;;;;27.75;23.75;;;;;;;;5071672;28;10048;-77
2024/01/30 00:45:32;;;;;;;;;17.50;17.00;;;;;;;;5069777;28;10856;-78
2024/01/30 00:48:02;;;;;;;;;20.25;20.25;;;;;;;;5066051;28;9714;-79
2024/01/30 00:50:32;;;;;;;;;22.50;22.50;;;;;;;;5067276;28;9947;-79
2024/01/30 00:53:03;;;;;;;;;16.50;16.50;;;;;;;;5063473;28;9773;-78
2024/01/30 00:55:34;;;;;;;;;25.00;23.00;;;;;;;;5061864;28;10020;-80
2024/01/30 00:58:01;;;;;;;;;27.25;22.00;;;;;;;;5057201;28;10710;-79
2024/01/30 01:00:29;;;;;;;;;22.50;22.50;;;;;;;;5066293;28;9849;-79
2024/01/30 01:02:56;;;;;;;;;20.25;19.00;;;;;;;;5068984;28;9944;-80
2024/01/30 01:05:23;;;;;;;;;20.25;20.25;;;;;;;;5069426;28;9926;-80
2024/01/30 01:07:51;;;;;;;;;19.75;19.25;;;;;;;;5068999;28;9962;-79
2024/01/30 01:10:18;;;;;;;;;17.75;17.75;;;;;;;;5066324;28;10616;-79
2024/01/30 01:12:47;;;;;;;;;21.75;21.25;;;;;;;;5069550;28;9963;-79
2024/01/30 01:15:14;;;;;;;;;25.75;25.00;;;;;;;;5072012;28;10074;-79
2024/01/30 01:17:42;;;;;;;;;19.00;19.00;;;;;;;;5071851;28;10100;-80
2024/01/30 01:20:10;;;;;;;;;15.50;13.50;;;;;;;;5070263;28;10146;-79
2024/01/30 01:22:38;;;;;;;;;18.50;18.50;;;;;;;;5068959;28;9885;-79
2024/01/30 01:25:08;;;;;;;;;19.75;19.75;;;;;;;;5069651;28;10086;-80
2024/01/30 01:27:40;;;;;;;;;20.00;20.00;;;;;;;;5048389;28;10115;-78
2024/01/30 01:30:11;;;;;;;;;27.00;23.75;;;;;;;;5066065;28;10037;-80
2024/01/30 01:32:44;;;;;;;;;24.50;22.00;;;;;;;;5061428;28;10255;-79
2024/01/30 01:35:11;;;;;;;;;25.00;21.50;;;;;;;;5068319;28;10099;-79
2024/01/30 01:37:39;;;;;;;;;22.25;21.75;;;;;;;;5065665;28;9943;-77
2024/01/30 01:40:08;;;;;;;;;26.75;21.75;;;;;;;;5069756;28;10033;-79
2024/01/30 01:42:35;;;;;;;;;23.25;20.75;;;;;;;;5070855;28;9872;-79
2024/01/30 01:45:02;;;;;;;;;19.50;18.25;;;;;;;;5072712;28;10042;-79
2024/01/30 01:47:31;;;;;;;;;19.50;18.25;;;;;;;;5071866;28;9931;-80
2024/01/30 01:49:59;;;;;;;;;18.50;16.75;;;;;;;;5073074;28;10019;-79
2024/01/30 01:52:27;;;;;;;;;20.25;18.75;;;;;;;;5072029;28;10087;-79
2024/01/30 01:54:54;;;;;;;;;19.25;19.25;;;;;;;;5073030;28;10030;-79
2024/01/30 01:57:21;;;;;;;;;18.75;18.75;;;;;;;;5065697;28;10088;-79
2024/01/30 01:59:48;;;;;;;;;24.75;21.00;;;;;;;;5062990;28;10028;-79
2024/01/30 02:02:16;;;;;;;;;19.50;19.50;;;;;;;;5069636;28;10041;-79
2024/01/30 02:04:45;;;;;;;;;25.00;19.25;;;;;;;;5071085;28;10043;-79
2024/01/30 02:07:12;;;;;;;;;21.00;21.00;;;;;;;;5072576;28;9952;-79
2024/01/30 02:09:40;;;;;;;;;7.25;7.25;;;;;;;;5070166;28;10030;-79
2024/01/30 02:12:07;;;;;;;;;24.00;22.25;;;;;;;;5067669;28;10030;-80
2024/01/30 02:14:44;;;;;;;;;21.00;21.00;;;;;;;;5066567;28;9861;-79
2024/01/30 02:17:11;;;;;;;;;23.00;21.75;;;;;;;;5068050;28;9947;-80
2024/01/30 02:19:39;;;;;;;;;23.25;18.50;;;;;;;;5067498;28;10767;-80
2024/01/30 02:22:08;;;;;;;;;20.50;20.50;;;;;;;;5067643;28;9795;-79
2024/01/30 02:24:35;;;;;;;;;21.75;21.75;;;;;;;;5067860;28;9955;-80
2024/01/30 02:27:02;;;;;;;;;18.75;18.75;;;;;;;;5068261;28;9951;-80
2024/01/30 02:29:29;;;;;;;;;20.75;20.50;;;;;;;;5059345;28;9785;-80
2024/01/30 02:31:57;;;;;;;;;20.25;20.25;;;;;;;;5067607;28;10085;-80
2024/01/30 02:34:25;;;;;;;;;20.75;20.75;;;;;;;;5063058;28;10018;-80
2024/01/30 02:36:52;;;;;;;;;18.75;18.75;;;;;;;;5067945;28;9879;-80
2024/01/30 02:39:21;;;;;;;;;18.25;17.50;;;;;;;;5068131;28;10028;-80
2024/01/30 02:41:48;;;;;;;;;14.25;13.75;;;;;;;;5066208;28;10080;-80
2024/01/30 02:44:14;;;;;;;;;18.00;18.00;;;;;;;;5061752;28;9946;-79
2024/01/30 02:46:42;;;;;;;;;18.50;18.00;;;;;;;;5053919;28;9979;-79
2024/01/30 02:49:09;;;;;;;;;20.00;20.00;;;;;;;;5061140;28;9847;-79
2024/01/30 02:51:36;;;;;;;;;24.50;20.25;;;;;;;;5060907;28;10732;-79
2024/01/30 02:54:04;;;;;;;;;21.00;19.50;;;;;;;;5061849;28;9960;-80
2024/01/30 02:56:32;;;;;;;;;19.25;19.25;;;;;;;;5056916;28;10185;-80
2024/01/30 02:58:59;;;;;;;;;24.50;22.00;;;;;;;;5067634;28;10175;-79
2024/01/30 03:01:27;;;;;;;;;26.00;19.50;;;;;;;;5070419;28;9963;-80
2024/01/30 03:03:54;;;;;;;;;21.50;21.50;;;;;;;;5059593;28;10054;-79
2024/01/30 03:06:22;;;;;;;;;19.75;18.25;;;;;;;;5070485;28;10034;-79
2024/01/30 03:08:50;;;;;;;;;19.00;18.00;;;;;;;;5071596;28;10101;-78
2024/01/30 03:11:17;;;;;;;;;17.00;16.50;;;;;;;;5071239;28;10125;-80
2024/01/30 03:13:45;;;;;;;;;16.75;16.75;;;;;;;;5071251;28;10026;-78
2024/01/30 03:16:15;;;;;;;;;20.75;18.25;;;;;;;;5072116;28;9858;-79
2024/01/30 03:18:45;;;;;;;;;18.50;17.25;;;;;;;;5070902;28;10141;-79
2024/01/30 03:21:13;;;;;;;;;17.25;17.25;;;;;;;;5063910;28;10039;-79
2024/01/30 03:23:40;;;;;;;;;16.00;16.00;;;;;;;;5071122;28;10882;-78
2024/01/30 03:26:09;;;;;;;;;18.50;17.00;;;;;;;;5072759;28;10065;-78
2024/01/30 03:28:36;;;;;;;;;19.00;17.50;;;;;;;;5074500;28;10745;-78
2024/01/30 03:31:05;;;;;;;;;17.50;17.50;;;;;;;;5075287;28;9875;-79
2024/01/30 03:33:33;;;;;;;;;19.75;16.75;;;;;;;;5075091;28;9999;-78
2024/01/30 03:36:05;;;;;;;;;17.00;17.00;;;;;;;;5075192;28;10903;-79
2024/01/30 03:38:34;;;;;;;;;19.75;17.75;;;;;;;;5076181;28;9920;-79
2024/01/30 03:41:02;;;;;;;;;20.25;18.00;;;;;;;;5076951;28;10023;-78
2024/01/30 03:43:29;;;;;;;;;20.75;18.75;;;;;;;;5073589;28;10156;-79
2024/01/30 03:45:56;;;;;;;;;19.00;18.75;;;;;;;;5072914;28;10118;-78
2024/01/30 03:48:25;;;;;;;;;17.25;17.25;;;;;;;;5073564;28;9946;-78
2024/01/30 03:50:52;;;;;;;;;20.75;19.25;;;;;;;;5074150;28;10105;-77
2024/01/30 03:53:20;;;;;;;;;16.75;16.75;;;;;;;;5065333;28;10618;-79
2024/01/30 03:55:47;;;;;;;;;21.25;21.00;;;;;;;;5063365;28;10022;-78
2024/01/30 03:58:14;;;;;;;;;15.75;15.75;;;;;;;;5070263;28;10231;-79
2024/01/30 04:00:42;;;;;;;;;17.00;17.00;;;;;;;;5068415;28;9816;-79
2024/01/30 04:03:09;;;;;;;;;17.75;16.00;;;;;;;;5066949;28;9853;-79
2024/01/30 04:05:37;;;;;;;;;19.25;18.00;;;;;;;;5066438;28;9916;-79
2024/01/30 04:08:05;;;;;;;;;17.00;17.00;;;;;;;;5057730;28;9950;-79
2024/01/30 04:10:33;;;;;;;;;20.75;20.75;;;;;;;;5066555;28;10032;-80
2024/01/30 04:13:03;;;;;;;;;20.75;18.00;;;;;;;;5060107;28;10046;-79
2024/01/30 04:15:30;;;;;;;;;17.00;17.00;;;;;;;;5069052;28;10030;-80
2024/01/30 04:17:59;;;;;;;;;18.00;16.25;;;;;;;;5058379;28;9956;-80
2024/01/30 04:20:26;;;;;;;;;14.00;14.00;;;;;;;;5069639;28;9984;-79
2024/01/30 04:22:55;;;;;;;;;15.25;15.00;;;;;;;;5070578;28;9826;-79
2024/01/30 04:25:22;;;;;;;;;17.25;14.50;;;;;;;;5069873;28;9927;-79
2024/01/30 04:27:50;;;;;;;;;18.50;18.50;;;;;;;;5067000;28;9789;-80
2024/01/30 04:30:17;;;;;;;;;20.25;20.25;;;;;;;;5067537;28;9954;-79
2024/01/30 04:32:45;;;;;;;;;15.25;15.25;;;;;;;;5070549;28;10026;-80
2024/01/30 04:35:12;;;;;;;;;17.25;15.75;;;;;;;;5069949;28;9839;-79
2024/01/30 04:37:39;;;;;;;;;15.00;13.75;;;;;;;;5069978;28;9925;-79
2024/01/30 04:40:09;;;;;;;;;15.00;13.50;;;;;;;;5069282;28;9978;-80
2024/01/30 04:42:36;;;;;;;;;14.50;14.50;;;;;;;;5069811;28;9936;-78
2024/01/30 04:45:04;;;;;;;;;14.50;14.50;;;;;;;;5068701;28;9967;-79
2024/01/30 04:47:31;;;;;;;;;19.25;16.75;;;;;;;;5062524;28;9968;-79
2024/01/30 04:49:58;;;;;;;;;12.75;12.00;;;;;;;;5069137;28;9944;-79
2024/01/30 04:52:25;;;;;;;;;13.75;13.75;;;;;;;;5068924;28;10061;-78
2024/01/30 04:54:53;;;;;;;;;13.50;13.00;;;;;;;;5068615;28;10040;-80
2024/01/30 04:57:21;;;;;;;;;16.75;16.75;;;;;;;;5068930;28;10066;-79
2024/01/30 04:59:48;;;;;;;;;15.50;14.00;;;;;;;;5068405;28;9919;-78
2024/01/30 05:02:16;;;;;;;;;18.25;14.50;;;;;;;;5067440;28;9867;-79
2024/01/30 05:04:44;;;;;;;;;13.50;13.50;;;;;;;;5072102;28;10118;-79
2024/01/30 05:07:11;;;;;;;;;14.25;14.25;;;;;;;;5068758;28;9898;-79
2024/01/30 05:09:38;;;;;;;;;17.00;14.00;;;;;;;;5068545;28;9936;-81
2024/01/30 05:12:06;;;;;;;;;17.00;15.00;;;;;;;;5070177;28;9947;-80
2024/01/30 05:14:37;;;;;;;;;15.00;14.00;;;;;;;;5071769;28;9955;-80
2024/01/30 05:17:05;;;;;;;;;14.00;14.00;;;;;;;;5070542;28;10030;-78
2024/01/30 05:19:32;;;;;;;;;15.50;15.50;;;;;;;;5063801;28;9939;-79
2024/01/30 05:21:59;;;;;;;;;10.25;10.25;;;;;;;;5073340;28;10013;-81
2024/01/30 05:24:27;;;;;;;;;9.75;9.75;;;;;;;;5074071;28;10139;-79
2024/01/30 05:26:54;;;;;;;;;18.50;18.50;;;;;;;;5070714;28;9967;-79
2024/01/30 05:29:22;;;;;;;;;16.50;15.75;;;;;;;;5070043;28;10145;-80
2024/01/30 05:32:22;;;;;;;;;17.00;15.25;;;;;;;;5068465;28;10563;-80
2024/01/30 05:34:50;;;;;;;;;19.50;17.00;;;;;;;;5071083;28;10067;-81
2024/01/30 05:37:20;;;;;;;;;14.75;13.50;;;;;;;;5073174;28;10099;-79
2024/01/30 05:39:53;;;;;;;;;15.25;15.25;;;;;;;;5071416;28;9996;-80
2024/01/30 05:42:21;;;;;;;;;14.25;14.25;;;;;;;;5069285;28;9956;-80
2024/01/30 05:44:51;;;;;;;;;13.50;13.50;;;;;;;;5067215;28;9915;-82
2024/01/30 05:47:19;;;;;;;;;15.50;14.50;;;;;;;;5067887;28;10026;-81
2024/01/30 05:49:48;;;;;;;;;14.50;13.00;;;;;;;;5063237;28;9919;-81
2024/01/30 05:52:18;;;;;;;;;10.50;10.50;;;;;;;;5067581;28;10125;-80
2024/01/30 05:54:48;;;;;;;;;18.75;16.50;;;;;;;;5057647;28;10029;-79
2024/01/30 05:57:16;;;;;;;;;15.00;15.00;;;;;;;;5073584;28;9801;-79
2024/01/30 05:59:48;;;;;;;;;14.50;13.75;;;;;;;;5067788;28;9792;-81
2024/01/30 06:02:35;;;;;;;;;17.00;17.00;;;;;;;;5067731;28;9887;-80
2024/01/30 06:05:02;;;;;;;;;15.25;15.25;;;;;;;;5055457;28;9879;-79
2024/01/30 06:07:29;;;;;;;;;15.25;14.25;;;;;;;;5066355;28;9892;-75
2024/01/30 06:10:01;;;;;;;;;17.00;15.50;;;;;;;;5060844;28;10701;-73
2024/01/30 06:12:29;;;;;;;;;7.00;7.00;;;;;;;;5066773;28;9996;-73
2024/01/30 06:14:56;;;;;;;;;14.75;14.25;;;;;;;;5067671;28;9933;-76
2024/01/30 06:17:24;;;;;;;;;15.75;15.75;;;;;;;;5066771;28;10025;-74
2024/01/30 06:19:52;;;;;;;;;16.00;16.00;;;;;;;;5063851;28;10023;-76
2024/01/30 06:22:20;;;;;;;;;20.00;17.25;;;;;;;;5060425;28;9944;-79
2024/01/30 06:24:55;;;;;;;;;14.00;14.00;;;;;;;;5068576;28;9932;-74
2024/01/30 06:27:23;;;;;;;;;14.50;14.50;;;;;;;;5065413;28;9760;-73
2024/01/30 06:29:58;;;;;;;;;14.25;14.25;;;;;;;;5069583;28;9928;-75
2024/01/30 06:32:35;;;;;;;;;;;;;;;;;;;;;
2024/01/30 06:38:31;;;;;;;;;16.75;15.75;;;;;;;;5071463;28;10775;-76
2024/01/30 06:41:01;;;;;;;;;21.25;18.75;;;;;;;;5071498;28;10038;-72
2024/01/30 06:43:34;;;;;;;;;13.75;13.75;;;;;;;;5071257;28;10168;-75
2024/01/30 06:46:02;;;;;;;;;16.25;16.25;;;;;;;;5071603;28;10022;-76
2024/01/30 06:48:29;;;;;;;;;14.50;14.25;;;;;;;;5071194;28;10186;-76
2024/01/30 06:50:58;;;;;;;;;15.25;14.50;;;;;;;;5071148;28;10826;-76
2024/01/30 06:53:26;;;;;;;;;16.75;15.25;;;;;;;;5070381;28;10050;-78
2024/01/30 06:55:53;;;;;;;;;19.00;19.00;;;;;;;;5070155;28;10054;-75
2024/01/30 06:58:21;;;;;;;;;19.25;15.25;;;;;;;;5071466;28;10094;-75
2024/01/30 07:00:48;;;;;;;;;16.50;16.50;;;;;;;;5065256;28;10150;-73
2024/01/30 07:03:15;;;;;;;;;19.00;16.25;;;;;;;;5073131;28;10981;-74
2024/01/30 07:05:43;;;;;;;;;19.00;16.50;;;;;;;;5073400;28;10041;-78
2024/01/30 07:08:11;;;;;;;;;11.75;11.75;;;;;;;;5074451;28;10102;-77
2024/01/30 07:10:38;;;;;;;;;19.00;18.00;;;;;;;;5074635;28;9994;-75
2024/01/30 07:13:06;;;;;;;;;15.25;15.25;;;;;;;;5072117;28;10139;-75
2024/01/30 07:15:33;;;;;;;;;22.00;16.00;;;;;;;;5074324;28;9988;-78
2024/01/30 07:18:00;;;;;;;;;18.50;18.25;;;;;;;;5074084;28;10177;-77
2024/01/30 07:20:30;;;;;;;;;17.50;17.50;;;;;;;;5060290;28;10030;-74
2024/01/30 07:22:57;;;;;;;;;20.00;20.00;;;;;;;;5070538;28;10081;-74
2024/01/30 07:25:26;;;;;;;;;15.50;15.50;;;;;;;;5071085;28;10149;-76
2024/01/30 07:27:54;;;;;;;;;17.50;17.50;;;;;;;;5071880;28;10096;-73
2024/01/30 07:30:21;;;;;;;;;24.75;20.50;;;;;;;;5063858;28;10333;-75
2024/01/30 07:32:50;;;;;;;;;13.75;13.50;;;;;;;;5065951;28;11200;-75
2024/01/30 07:35:17;;;;;;;;;24.25;18.00;;;;;;;;5070007;28;10013;-76
2024/01/30 07:37:44;;;;;;;;;17.00;15.75;;;;;;;;5069614;28;10277;-74
2024/01/30 07:40:12;;;;;;;;;17.50;17.50;;;;;;;;5059714;28;9913;-74
2024/01/30 07:42:40;;;;;;;;;18.50;17.25;;;;;;;;5070069;28;10082;-74
2024/01/30 07:45:08;;;;;;;;;16.00;15.75;;;;;;;;5058165;28;10173;-76
2024/01/30 07:47:35;;;;;;;;;18.50;18.50;;;;;;;;5069044;28;10531;-74
2024/01/30 07:50:03;;;;;;;;;18.00;15.00;;;;;;;;5069625;28;10109;-74
2024/01/30 07:52:30;;;;;;;;;17.75;15.75;;;;;;;;5069834;28;9845;-74
2024/01/30 07:55:54;;;;;;;;;15.75;15.50;;;;;;;;5058303;28;9917;-72
2024/01/30 07:58:27;;;;;;;;;20.50;15.50;;;;;;;;4946960;28;9958;-73
2024/01/30 08:00:54;;;;;;;;;18.50;18.50;;;;;;;;5067244;28;9960;-75
2024/01/30 08:03:21;;;;;;;;;18.00;17.25;;;;;;;;5069583;28;10038;-74
2024/01/30 08:05:48;;;;;;;;;18.50;17.25;;;;;;;;5068562;28;10740;-72
2024/01/30 08:08:18;;;;;;;;;22.75;20.75;;;;;;;;5069709;28;9968;-73
2024/01/30 08:10:45;;;;;;;;;16.75;16.75;;;;;;;;5069034;28;10016;-72
2024/01/30 08:13:12;;;;;;;;;15.00;15.00;;;;;;;;5059359;28;9848;-73
2024/01/30 08:15:41;;;;;;;;;17.00;16.50;;;;;;;;5069458;28;10024;-75
2024/01/30 08:18:08;;;;;;;;;17.25;15.75;;;;;;;;5069253;28;9788;-73
2024/01/30 08:20:35;;;;;;;;;20.75;17.75;;;;;;;;5069131;28;9827;-75
2024/01/30 08:23:02;;;;;;;;;22.25;17.25;;;;;;;;5069567;28;10062;-73
2024/01/30 08:25:29;;;;;;;;;18.75;18.75;;;;;;;;5063769;28;10151;-72
2024/01/30 08:27:57;;;;;;;;;18.50;18.50;;;;;;;;5069971;28;10133;-73
2024/01/30 08:30:24;;;;;;;;;19.75;19.75;;;;;;;;5071248;28;9885;-72
2024/01/30 08:32:53;;;;;;;;;22.25;21.25;;;;;;;;5070133;28;10096;-74
2024/01/30 08:35:20;;;;;;;;;19.75;17.50;;;;;;;;5069129;28;10117;-74
2024/01/30 08:37:47;;;;;;;;;31.75;22.50;;;;;;;;5069490;28;10072;-73
2024/01/30 08:40:14;;;;;;;;;20.50;18.75;;;;;;;;5066571;28;10236;-73
2024/01/30 08:42:41;;;;;;;;;20.00;20.00;;;;;;;;5068876;28;10098;-74
2024/01/30 08:45:10;;;;;;;;;21.00;19.00;;;;;;;;5066464;28;10139;-75
2024/01/30 08:47:37;;;;;;;;;20.25;18.25;;;;;;;;5064975;28;10126;-74
2024/01/30 08:50:07;;;;;;;;;18.50;18.50;;;;;;;;5066250;28;9977;-73
2024/01/30 08:52:34;;;;;;;;;19.25;17.50;;;;;;;;5069130;28;10044;-74
2024/01/30 08:55:01;;;;;;;;;23.75;20.50;;;;;;;;5067540;28;10238;-74
2024/01/30 08:57:30;;;;;;;;;21.50;19.50;;;;;;;;5066814;28;10036;-79
2024/01/30 08:59:57;;;;;;;;;25.75;19.75;;;;;;;;5069666;28;9865;-76
2024/01/30 09:02:25;;;;;;;;;21.50;21.50;;;;;;;;5063081;28;9919;-75
2024/01/30 09:04:52;;;;;;;;;20.75;18.00;;;;;;;;5069154;28;10112;-73
2024/01/30 09:07:20;;;;;;;;;19.50;19.50;;;;;;;;5070782;28;10224;-75
2024/01/30 09:09:49;;;;;;;;;23.25;20.00;;;;;;;;5064513;28;10089;-72
2024/01/30 09:12:16;;;;;;;;;23.50;20.25;;;;;;;;5057537;28;9986;-72
2024/01/30 09:14:43;;;;;;;;;21.25;19.00;;;;;;;;5067457;28;10067;-71
2024/01/30 09:17:10;;;;;;;;;19.25;19.25;;;;;;;;5068476;28;9936;-71
2024/01/30 09:19:37;;;;;;;;;17.00;17.00;;;;;;;;5059963;28;10097;-73
2024/01/30 09:22:05;;;;;;;;;13.00;12.75;;;;;;;;5067931;28;10077;-75
2024/01/30 09:24:33;;;;;;;;;16.00;16.00;;;;;;;;5068459;28;9920;-72
2024/01/30 09:27:01;;;;;;;;;18.00;18.00;;;;;;;;5067512;28;9690;-75
2024/01/30 09:29:28;;;;;;;;;17.25;15.50;;;;;;;;5059403;28;9614;-73
2024/01/30 09:31:55;;;;;;;;;19.25;17.25;;;;;;;;5067198;28;9600;-74
2024/01/30 09:34:22;;;;;;;;;18.67;14.00;;;;;;;;5067776;28;9482;-76
2024/01/30 09:36:50;;;;;;;;;16.50;15.50;;;;;;;;5067519;28;9487;-72
2024/01/30 09:39:19;;;;;;;;;14.75;14.75;;;;;;;;5068113;28;9526;-74
2024/01/30 09:41:51;;;;;;;;;16.00;12.67;;;;;;;;5055890;28;9519;-76
2024/01/30 09:44:18;;;;;;;;;14.00;14.00;;;;;;;;5068328;28;10190;-76
2024/01/30 09:46:51;;;;;;;;;10.33;10.33;;;;;;;;5063478;28;9321;-74
2024/01/30 09:49:19;;;;;;;;;10.00;10.00;;;;;;;;5062429;28;9394;-73
2024/01/30 09:51:46;;;;;;;;;7.33;7.33;;;;;;;;5065087;28;9382;-72
2024/01/30 09:54:15;;;;;;;;;14.00;12.33;;;;;;;;5054443;28;9091;-73
2024/01/30 09:56:43;;;;;;;;;9.00;9.00;;;;;;;;5066452;28;9204;-73
2024/01/30 09:59:11;;;;;;;;;10.67;10.00;;;;;;;;5067591;28;9089;-74
2024/01/30 10:01:39;;;;;;;;;7.33;7.33;;;;;;;;5067393;28;9105;-75
2024/01/30 10:04:06;;;;;;;;;11.67;10.33;;;;;;;;5065732;28;9104;-77
2024/01/30 10:06:34;;;;;;;;;11.67;10.33;;;;;;;;5067883;28;9092;-74
2024/01/30 10:09:01;;;;;;;;;11.00;9.00;;;;;;;;5066528;28;8938;-75
2024/01/30 10:11:28;;;;;;;;;17.50;11.25;;;;;;;;5068012;28;8962;-74
2024/01/30 10:13:55;;;;;;;;;12.00;8.67;;;;;;;;5067077;28;8840;-73
2024/01/30 10:16:24;;;;;;;;;11.75;8.75;;;;;;;;5067955;28;9050;-75
2024/01/30 10:18:52;;;;;;;;;11.00;7.67;;;;;;;;5066705;28;8837;-76
2024/01/30 10:21:19;;;;;;;;;13.33;11.00;;;;;;;;5065725;28;9159;-75
2024/01/30 10:23:47;;;;;;;;;15.00;15.00;;;;;;;;5065356;28;9897;-77
2024/01/30 10:26:14;;;;;;;;;11.25;10.00;;;;;;;;5067444;28;8938;-78
2024/01/30 10:28:44;;;;;;;;;11.00;11.00;;;;;;;;5067303;28;8986;-75
2024/01/30 10:31:11;;;;;;;;;16.33;16.33;;;;;;;;5066893;28;8927;-74
2024/01/30 10:33:40;;;;;;;;;23.33;20.67;;;;;;;;5064641;28;8990;-74
2024/01/30 10:36:07;;;;;;;;;17.67;17.33;;;;;;;;5067647;28;9089;-79
2024/01/30 10:38:35;;;;;;;;;18.00;18.00;;;;;;;;5068379;28;9105;-78
2024/01/30 10:41:03;;;;;;;;;24.00;22.33;;;;;;;;5067125;28;9188;-74
2024/01/30 10:43:34;;;;;;;;;24.33;21.00;;;;;;;;5065861;28;9393;-75
2024/01/30 10:46:10;;;;;;;;;16.00;16.00;;;;;;;;5070716;28;9407;-77
2024/01/30 10:48:44;;;;;;;;;20.00;18.00;;;;;;;;5059794;28;9234;-76
2024/01/30 10:51:13;;;;;;;;;18.33;16.67;;;;;;;;5069522;28;9242;-79
2024/01/30 10:53:43;;;;;;;;;19.67;18.00;;;;;;;;5062169;28;9255;-76
2024/01/30 10:56:12;;;;;;;;;16.33;16.33;;;;;;;;5068585;28;9326;-76
2024/01/30 10:58:39;;;;;;;;;16.67;16.67;;;;;;;;5070622;28;9347;-73
2024/01/30 11:01:07;;;;;;;;;16.33;15.33;;;;;;;;5067158;28;9166;-73
2024/01/30 11:03:36;;;;;;;;;19.33;17.00;;;;;;;;5070484;28;9358;-72
2024/01/30 11:06:11;;;;;;;;;15.67;15.00;;;;;;;;5073510;28;10124;-75
2024/01/30 11:08:38;;;;;;;;;13.00;12.33;;;;;;;;5073154;28;9080;-74
2024/01/30 11:11:10;;;;;;;;;14.00;11.67;;;;;;;;5066065;28;9201;-74
2024/01/30 11:13:37;;;;;;;;;9.00;9.00;;;;;;;;5067090;28;9276;-71
2024/01/30 11:16:06;;;;;;;;;14.33;10.67;;;;;;;;5067750;28;9987;-73
2024/01/30 11:18:34;;;;;;;;;13.00;10.67;;;;;;;;5065211;28;9272;-74
2024/01/30 11:21:02;;;;;;;;;8.00;8.00;;;;;;;;5068234;28;9737;-72
2024/01/30 11:23:31;;;;;;;;;10.67;9.33;;;;;;;;5069933;28;9057;-72
2024/01/30 11:25:59;;;;;;;;;10.00;10.00;;;;;;;;5073457;28;9184;-72
2024/01/30 11:28:26;;;;;;;;;11.00;7.67;;;;;;;;5069227;28;9179;-76
2024/01/30 11:31:03;;;;;;;;;8.33;7.00;;;;;;;;5069627;28;9135;-73
2024/01/30 11:33:31;;;;;;;;;10.33;8.00;;;;;;;;5069057;28;9024;-77
2024/01/30 11:36:00;;;;;;;;;6.75;5.50;;;;;;;;5072231;28;9029;-72
2024/01/30 11:38:28;;;;;;;;;6.75;6.00;;;;;;;;5071242;28;8966;-74
2024/01/30 11:40:57;;;;;;;;;6.00;6.00;;;;;;;;5070812;28;8840;-72
2024/01/30 11:43:24;;;;;;;;;6.50;6.50;;;;;;;;5068124;28;8840;-75
2024/01/30 11:45:52;;;;;;;;;6.75;6.75;;;;;;;;5070272;28;9622;-74
2024/01/30 11:48:20;;;;;;;;;4.00;4.00;;;;;;;;5069294;28;8840;-75
2024/01/30 11:50:47;;;;;;;;;3.75;3.75;;;;;;;;5069653;28;8845;-75
2024/01/30 11:53:14;;;;;;;;;3.00;3.00;;;;;;;;5066159;28;8852;-74
2024/01/30 11:55:41;;;;;;;;;2.75;2.75;;;;;;;;5063138;28;8995;-71
2024/01/30 11:58:10;;;;;;;;;2.00;2.00;;;;;;;;5066634;28;8860;-75
2024/01/30 12:00:37;;;;;;;;;2.00;2.00;;;;;;;;5069397;28;8894;-78
2024/01/30 12:03:06;;;;;;;;;1.00;1.00;;;;;;;;5069051;28;8866;-76
2024/01/30 12:05:34;;;;;;;;;0.75;0.50;;;;;;;;5065674;28;8875;-76
2024/01/30 12:08:04;;;;;;;;;1.00;1.00;;;;;;;;5065149;28;9027;-75
2024/01/30 12:10:31;;;;;;;;;2.00;1.00;;;;;;;;5069616;28;8882;-80
2024/01/30 12:13:01;;;;;;;;;3.75;1.00;;;;;;;;5069872;28;8862;-77
2024/01/30 12:15:30;;;;;;;;;0.00;0.00;;;;;;;;5069547;28;8862;-76
2024/01/30 12:18:06;;;;;;;;;1.00;1.00;;;;;;;;5065238;28;8866;-73
2024/01/30 12:20:33;;;;;;;;;1.00;1.00;;;;;;;;5068111;28;8848;-75
2024/01/30 12:23:02;;;;;;;;;2.75;1.25;;;;;;;;5069549;28;8849;-77
2024/01/30 12:25:29;;;;;;;;;0.00;0.00;;;;;;;;5065743;28;8850;-72
2024/01/30 12:27:56;;;;;;;;;1.00;1.00;;;;;;;;5069646;28;8832;-72
2024/01/30 12:30:24;;;;;;;;;0.00;0.00;;;;;;;;5069799;28;8844;-73
2024/01/30 12:32:54;;;;;;;;;0.00;0.00;;;;;;;;5069549;28;8852;-77
2024/01/30 12:35:22;;;;;;;;;1.00;1.00;;;;;;;;5067287;28;8854;-75
2024/01/30 12:37:50;;;;;;;;;0.00;0.00;;;;;;;;5072451;28;8856;-76
2024/01/30 12:40:18;;;;;;;;;0.00;0.00;;;;;;;;5072291;28;8955;-73
2024/01/30 12:42:48;;;;;;;;;0.00;0.00;;;;;;;;5072261;28;8863;-74
2024/01/30 12:45:15;;;;;;;;;0.25;0.25;;;;;;;;5068279;28;8856;-74
2024/01/30 12:47:43;;;;;;;;;0.00;0.00;;;;;;;;5070726;28;8985;-74
2024/01/30 12:50:12;;;;;;;;;0.00;0.00;;;;;;;;5070342;28;8868;-76
2024/01/30 12:52:42;;;;;;;;;0.00;0.00;;;;;;;;5062989;28;8864;-72
2024/01/30 12:55:09;;;;;;;;;0.00;0.00;;;;;;;;5057259;28;8986;-76
2024/01/30 12:57:36;;;;;;;;;0.00;0.00;;;;;;;;5069501;28;8871;-72
2024/01/30 13:00:04;;;;;;;;;0.00;0.00;;;;;;;;5069780;28;9619;-75
2024/01/30 13:02:36;;;;;;;;;0.00;0.00;;;;;;;;5068306;28;9593;-73
2024/01/30 13:05:04;;;;;;;;;0.00;0.00;;;;;;;;5068519;28;8876;-72
2024/01/30 13:07:33;;;;;;;;;0.50;0.50;;;;;;;;5067571;28;8859;-74
2024/01/30 13:10:03;;;;;;;;;0.00;0.00;;;;;;;;5068497;28;9626;-72
2024/01/30 13:12:30;;;;;;;;;0.00;0.00;;;;;;;;5068174;28;8845;-72
2024/01/30 13:14:58;;;;;;;;;0.00;0.00;;;;;;;;5068327;28;8859;-72
2024/01/30 13:17:25;;;;;;;;;0.00;0.00;;;;;;;;5067420;28;8852;-73
2024/01/30 13:19:53;;;;;;;;;1.00;0.00;;;;;;;;5067332;28;8836;-71
2024/01/30 13:22:21;;;;;;;;;0.00;0.00;;;;;;;;5067877;28;8844;-77
2024/01/30 13:24:50;;;;;;;;;0.00;0.00;;;;;;;;5068372;28;8967;-73
2024/01/30 13:27:17;;;;;;;;;0.00;0.00;;;;;;;;5068382;28;8828;-73
2024/01/30 13:29:44;;;;;;;;;0.00;0.00;;;;;;;;5054847;28;8858;-74
2024/01/30 13:32:11;;;;;;;;;0.00;0.00;;;;;;;;5064809;28;8805;-78
2024/01/30 13:34:40;;;;;;;;;0.00;0.00;;;;;;;;5068453;28;8820;-72
2024/01/30 13:37:07;;;;;;;;;0.00;0.00;;;;;;;;5069598;28;8856;-75
2024/01/30 13:39:34;;;;;;;;;0.00;0.00;;;;;;;;5076381;28;8975;-71
2024/01/30 13:42:03;;;;;;;;;0.00;0.00;;;;;;;;5071118;28;8852;-75
2024/01/30 13:44:30;;;;;;;;;0.00;0.00;;;;;;;;5067170;28;8840;-77
2024/01/30 13:47:00;;;;;;;;;0.00;0.00;;;;;;;;5067952;28;8862;-75
2024/01/30 13:49:29;;;;;;;;;0.00;0.00;;;;;;;;5067994;28;8848;-74
2024/01/30 13:51:58;;;;;;;;;0.00;0.00;;;;;;;;5068112;28;8848;-72
2024/01/30 13:54:25;;;;;;;;;0.00;0.00;;;;;;;;5056230;28;8975;-75
2024/01/30 13:56:52;;;;;;;;;0.00;0.00;;;;;;;;5067158;28;8856;-72
2024/01/30 13:59:24;;;;;;;;;0.00;0.00;;;;;;;;5067968;28;8825;-72
2024/01/30 14:01:51;;;;;;;;;0.00;0.00;;;;;;;;5068081;28;8809;-76
2024/01/30 14:04:19;;;;;;;;;0.00;0.00;;;;;;;;5068088;28;8860;-74
2024/01/30 14:06:46;;;;;;;;;0.00;0.00;;;;;;;;5068009;28;8983;-76
2024/01/30 14:09:14;;;;;;;;;0.00;0.00;;;;;;;;5068266;28;8841;-79
2024/01/30 14:11:42;;;;;;;;;0.00;0.00;;;;;;;;5072484;28;9639;-78
2024/01/30 14:14:09;;;;;;;;;0.00;0.00;;;;;;;;5067854;28;8852;-76
2024/01/30 14:16:38;;;;;;;;;0.00;0.00;;;;;;;;5067905;28;9753;-79
2024/01/30 14:19:06;;;;;;;;;1.25;1.25;;;;;;;;5064787;28;8868;-78
2024/01/30 14:21:33;;;;;;;;;1.00;1.00;;;;;;;;5066734;28;9643;-78
2024/01/30 14:24:00;;;;;;;;;1.00;1.00;;;;;;;;5068349;28;8868;-78
2024/01/30 14:26:30;;;;;;;;;1.25;1.25;;;;;;;;5070091;28;8852;-79
2024/01/30 14:28:57;;;;;;;;;3.00;3.00;;;;;;;;5068786;28;8902;-77
2024/01/30 14:31:27;;;;;;;;;2.00;2.00;;;;;;;;5073453;28;8805;-80
2024/01/30 14:33:56;;;;;;;;;1.50;1.50;;;;;;;;5073864;28;8890;-75
2024/01/30 14:36:27;;;;;;;;;2.50;2.50;;;;;;;;5069158;28;8870;-77
2024/01/30 14:38:55;;;;;;;;;1.00;1.00;;;;;;;;5060759;28;9003;-77
2024/01/30 14:41:22;;;;;;;;;2.50;2.50;;;;;;;;5068531;28;8915;-78
2024/01/30 14:43:49;;;;;;;;;1.00;1.00;;;;;;;;5068490;28;8858;-77